Time;durP1;ratioP1;P1;durP2;ratioP2;P2;SDS_P1;SDS_P2;PMS_P1;PMS_P2;Temp;Humidity;BMP_temperature;BMP_pressure;BME280_temperature;BME280_humidity;BME280_pressure;Samples;Min_cycle;Max_cycle;Signal;HPM_P1;HPM_P2
2023/08/22 00:01:55;;;;;;;54.33;12.07;;;21.20;1.00;;;;;;5037097;28;20379;-80
2023/08/22 00:04:31;;;;;;;45.53;10.63;;;21.20;1.00;;;;;;5034946;28;20987;-79
2023/08/22 00:07:13;;;;;;;51.43;10.77;;;21.20;1.00;;;;;;5025852;28;20449;-79
2023/08/22 00:09:49;;;;;;;47.47;11.30;;;21.20;1.00;;;;;;5026056;28;20417;-80
2023/08/22 00:12:19;;;;;;;49.80;11.73;;;21.10;1.00;;;;;;5034540;28;20457;-79
2023/08/22 00:14:50;;;;;;;45.63;11.17;;;21.10;1.00;;;;;;5036623;28;20425;-79
2023/08/22 00:17:37;;;;;;;56.23;13.30;;;21.10;1.00;;;;;;5035247;28;20418;-79
2023/08/22 00:20:13;;;;;;;46.33;11.93;;;21.10;1.00;;;;;;5031371;28;20422;-79
2023/08/22 00:26:19;;;;;;;54.70;12.77;;;21.00;1.00;;;;;;5036455;28;20913;-79
2023/08/22 00:28:55;;;;;;;50.67;13.17;;;20.90;1.00;;;;;;5031282;28;20934;-79
2023/08/22 00:31:31;;;;;;;54.40;14.27;;;20.90;1.00;;;;;;5033396;28;20506;-79
2023/08/22 00:34:31;;;;;;;50.37;12.50;;;20.90;1.00;;;;;;5034372;28;20791;-79
2023/08/22 00:37:19;;;;;;;51.13;13.60;;;20.80;1.00;;;;;;5016633;28;20832;-79
2023/08/22 00:39:55;;;;;;;49.33;13.97;;;20.80;1.00;;;;;;5032613;28;20425;-79
2023/08/22 00:43:13;;;;;;;44.77;13.30;;;20.80;1.00;;;;;;5033324;28;20433;-79
2023/08/22 00:46:01;;;;;;;54.53;14.00;;;20.70;1.00;;;;;;5028113;28;20459;-79
2023/08/22 00:48:55;;;;;;;52.63;13.63;;;20.70;1.00;;;;;;5022931;28;20575;-80
2023/08/22 00:51:39;;;;;;;53.70;15.57;;;20.60;1.00;;;;;;5030009;28;20435;-79
2023/08/22 00:54:06;;;;;;;53.70;14.23;;;20.60;1.00;;;;;;5018082;28;20426;-79
2023/08/22 00:56:43;;;;;;;49.80;14.10;;;20.50;1.00;;;;;;5027968;28;20810;-79
2023/08/22 00:59:13;;;;;;;57.83;13.53;;;20.60;1.00;;;;;;5018088;28;20436;-79
2023/08/22 01:02:01;;;;;;;50.40;14.00;;;20.50;1.00;;;;;;5024475;28;20426;-79
2023/08/22 01:04:31;;;;;;;55.93;14.20;;;20.60;1.00;;;;;;5031215;28;20433;-79
2023/08/22 01:07:22;;;;;;;53.60;14.87;;;20.50;1.00;;;;;;5029048;28;20912;-80
2023/08/22 01:10:11;;;;;;;57.10;14.50;;;20.50;1.00;;;;;;5033562;28;20422;-81
2023/08/22 01:13:02;;;;;;;47.80;14.50;;;20.50;1.00;;;;;;5034038;28;20452;-80
2023/08/22 01:15:34;;;;;;;50.97;13.87;;;20.40;1.00;;;;;;5023944;28;20504;-80
2023/08/22 01:18:05;;;;;;;53.47;13.80;;;20.50;1.00;;;;;;5034890;28;20927;-79
2023/08/22 01:20:43;;;;;;;53.00;13.80;;;20.40;1.00;;;;;;5032132;28;20510;-79
2023/08/22 01:23:25;;;;;;;55.90;14.40;;;20.40;1.00;;;;;;5033315;28;20508;-79
2023/08/22 01:26:25;;;;;;;49.47;14.00;;;20.30;1.00;;;;;;5035500;28;20877;-79
2023/08/22 01:29:05;;;;;;;53.37;14.80;;;20.30;1.00;;;;;;5025547;28;20436;-79
2023/08/22 01:32:11;;;;;;;54.20;15.23;;;20.30;1.00;;;;;;5025153;28;20468;-79
2023/08/22 01:35:02;;;;;;;56.67;14.23;;;20.30;1.00;;;;;;5037086;28;20429;-79
2023/08/22 01:37:38;;;;;;;57.57;13.80;;;20.20;1.00;;;;;;5039624;28;20414;-80
2023/08/22 01:40:09;;;;;;;49.00;13.10;;;20.20;1.00;;;;;;5042701;28;20432;-79
2023/08/22 01:42:43;;;;;;;50.83;13.70;;;20.10;1.00;;;;;;5042698;28;20494;-79
2023/08/22 01:45:31;;;;;;;56.60;14.07;;;20.10;1.00;;;;;;5046138;28;20544;-80
2023/08/22 01:48:01;;;;;;;49.23;14.20;;;20.10;1.00;;;;;;5049087;28;20415;-79
2023/08/22 01:50:31;;;;;;;50.50;14.70;;;20.00;1.00;;;;;;5044788;28;20431;-80
2023/08/22 01:53:07;;;;;;;50.77;14.43;;;20.00;1.00;;;;;;5049377;28;20851;-79
2023/08/22 01:55:33;;;;;;;57.60;13.73;;;20.00;1.00;;;;;;5052808;28;20468;-80
2023/08/22 01:58:14;;;;;;;55.03;14.00;;;19.90;1.00;;;;;;5052071;28;20823;-80
2023/08/22 02:00:49;;;;;;;54.33;16.07;;;19.90;1.00;;;;;;5035729;28;20195;-80
2023/08/22 02:03:20;;;;;;;53.00;15.20;;;19.90;1.00;;;;;;5050024;28;20946;-79
2023/08/22 02:05:55;;;;;;;51.63;14.33;;;19.90;1.00;;;;;;5035613;28;20430;-79
2023/08/22 02:08:31;;;;;;;50.17;14.07;;;19.90;1.00;;;;;;5028088;28;20982;-79
2023/08/22 02:11:37;;;;;;;52.47;13.70;;;19.80;1.00;;;;;;5040725;28;20459;-79
2023/08/22 02:14:31;;;;;;;52.17;13.23;;;19.70;1.00;;;;;;5039294;28;20490;-80
2023/08/22 02:17:01;;;;;;;64.33;14.30;;;19.70;1.00;;;;;;5042046;28;20449;-80
2023/08/22 02:19:31;;;;;;;49.57;13.90;;;19.70;1.00;;;;;;5028750;28;20474;-79
2023/08/22 02:22:01;;;;;;;48.63;13.80;;;19.70;1.00;;;;;;5034724;28;20884;-80
2023/08/22 02:24:43;;;;;;;49.97;14.37;;;19.70;1.00;;;;;;5032987;28;20395;-81
2023/08/22 02:27:13;;;;;;;54.03;14.20;;;19.80;1.00;;;;;;5029877;28;20518;-79
2023/08/22 02:29:43;;;;;;;55.27;14.07;;;19.80;1.00;;;;;;5034519;28;20423;-79
2023/08/22 02:32:13;;;;;;;64.83;14.50;;;19.80;1.00;;;;;;5032887;28;21045;-80
2023/08/22 02:34:44;;;;;;;55.23;15.27;;;19.80;1.00;;;;;;5024861;28;20963;-79
2023/08/22 02:37:13;;;;;;;55.50;14.00;;;19.90;1.00;;;;;;5033360;28;20435;-79
2023/08/22 02:40:13;;;;;;;57.23;14.10;;;19.90;1.00;;;;;;5019133;28;20404;-79
2023/08/22 02:43:07;;;;;;;54.50;13.87;;;19.80;1.00;;;;;;5032769;28;20423;-79
2023/08/22 02:46:13;;;;;;;51.63;13.60;;;19.90;1.00;;;;;;5023501;28;20426;-80
2023/08/22 02:48:43;;;;;;;53.93;14.10;;;19.80;1.00;;;;;;5019612;28;20444;-79
2023/08/22 02:51:19;;;;;;;51.57;14.00;;;19.90;1.00;;;;;;5032459;28;20583;-80
2023/08/22 02:53:55;;;;;;;51.77;15.10;;;19.90;1.00;;;;;;5033816;28;20382;-80
2023/08/22 02:56:37;;;;;;;51.67;14.60;;;19.90;1.00;;;;;;5025895;28;20491;-79
2023/08/22 02:59:55;;;;;;;52.57;13.17;;;19.90;1.00;;;;;;5020874;28;20471;-79
2023/08/22 03:02:38;;;;;;;55.33;14.67;;;19.90;1.00;;;;;;5033832;28;20422;-81
2023/08/22 03:05:11;;;;;;;53.63;14.40;;;19.80;1.00;;;;;;5029221;28;20508;-80
2023/08/22 03:07:37;;;;;;;50.80;15.40;;;19.80;1.00;;;;;;5016564;28;20429;-80
2023/08/22 03:10:14;;;;;;;54.90;13.93;;;19.80;1.00;;;;;;5024370;28;20448;-79
2023/08/22 03:12:43;;;;;;;59.63;14.70;;;19.80;1.00;;;;;;5025252;28;20475;-79
2023/08/22 03:15:19;;;;;;;51.03;14.00;;;19.80;1.00;;;;;;5025731;28;20416;-80
2023/08/22 03:17:45;;;;;;;66.07;15.07;;;19.70;1.00;;;;;;5016492;28;20408;-79
2023/08/22 03:20:11;;;;;;;55.20;14.40;;;19.70;1.00;;;;;;5030436;28;20478;-81
2023/08/22 03:22:43;;;;;;;49.97;14.83;;;19.70;1.00;;;;;;5022184;28;20650;-81
2023/08/22 03:25:13;;;;;;;50.13;13.53;;;19.70;2.50;;;;;;5030440;28;20431;-81
2023/08/22 03:28:07;;;;;;;54.07;14.13;;;19.70;1.00;;;;;;5033498;28;20465;-81
2023/08/22 03:30:33;;;;;;;52.40;14.90;;;19.70;1.00;;;;;;5021529;28;20431;-80
2023/08/22 03:33:19;;;;;;;50.30;14.60;;;19.60;1.00;;;;;;5025941;28;20526;-82
2023/08/22 03:35:50;;;;;;;62.60;15.30;;;19.60;1.00;;;;;;5028276;28;20180;-81
2023/08/22 03:38:19;;;;;;;53.43;15.00;;;19.60;1.00;;;;;;5036399;28;20915;-81
2023/08/22 03:40:46;;;;;;;56.57;14.87;;;19.60;1.00;;;;;;5032744;28;20399;-80
2023/08/22 03:43:26;;;;;;;53.43;14.00;;;19.60;1.00;;;;;;5028606;28;21041;-80
2023/08/22 03:46:07;;;;;;;49.43;14.30;;;19.50;1.00;;;;;;5029906;28;20442;-80
2023/08/22 03:48:49;;;;;;;54.67;13.43;;;19.50;1.00;;;;;;5017448;28;20853;-81
2023/08/22 03:51:32;;;;;;;50.70;13.57;;;;;;;;;;5017713;28;20932;-82
2023/08/22 03:54:37;;;;;;;49.97;15.40;;;19.40;1.00;;;;;;5029771;28;20395;-80
2023/08/22 03:57:43;;;;;;;60.53;15.93;;;19.40;3.60;;;;;;5023736;28;20416;-80
2023/08/22 04:00:19;;;;;;;50.03;14.47;;;19.40;4.70;;;;;;5016205;28;20492;-80
2023/08/22 04:03:19;;;;;;;62.47;15.03;;;19.30;9.00;;;;;;5018165;28;20413;-80
2023/08/22 04:06:13;;;;;;;50.80;15.03;;;19.30;6.00;;;;;;5036837;28;20398;-81
2023/08/22 04:12:37;;;;;;;59.67;15.30;;;19.30;7.60;;;;;;5031994;28;20521;-83
2023/08/22 04:15:09;;;;;;;50.23;14.87;;;19.20;8.00;;;;;;5035838;28;20418;-84
2023/08/22 04:17:43;;;;;;;59.43;15.03;;;19.10;9.80;;;;;;5035829;28;20400;-84
2023/08/22 04:23:31;;;;;;;60.70;13.90;;;19.10;9.60;;;;;;5029684;28;20441;-80
2023/08/22 04:25:57;;;;;;;56.07;15.87;;;19.00;11.20;;;;;;5035465;28;20414;-80
2023/08/22 04:28:25;;;;;;;51.40;13.67;;;19.00;12.40;;;;;;5031204;28;20473;-80
2023/08/22 04:31:13;;;;;;;63.73;15.60;;;19.00;12.80;;;;;;5030523;28;20554;-79
2023/08/22 04:34:02;;;;;;;58.00;13.67;;;19.00;14.50;;;;;;5017048;28;20470;-77
2023/08/22 04:36:43;;;;;;;57.17;15.00;;;19.00;13.10;;;;;;5031759;28;20782;-79
2023/08/22 04:42:31;;;;;;;52.67;14.07;;;19.00;11.80;;;;;;5028778;28;20772;-77
2023/08/22 04:45:13;;;;;;;53.93;12.70;;;19.10;12.30;;;;;;5022348;28;20390;-78
2023/08/22 04:48:01;;;;;;;52.27;14.00;;;19.10;13.50;;;;;;5021993;28;20429;-78
2023/08/22 04:50:37;;;;;;;55.40;14.97;;;19.10;14.80;;;;;;5036213;28;20420;-78
2023/08/22 04:53:03;;;;;;;52.13;14.20;;;19.10;15.80;;;;;;5036416;28;20418;-75
2023/08/22 04:55:29;;;;;;;54.83;14.10;;;19.10;15.40;;;;;;5035996;28;20506;-76
2023/08/22 04:58:07;;;;;;;65.50;15.70;;;19.00;18.30;;;;;;5016824;28;20180;-75
2023/08/22 05:00:37;;;;;;;60.67;14.90;;;19.00;19.10;;;;;;5022153;28;20656;-76
2023/08/22 05:03:03;;;;;;;59.23;15.50;;;19.10;19.70;;;;;;5034448;28;20470;-75
2023/08/22 05:05:37;;;;;;;56.13;15.40;;;19.10;23.30;;;;;;5035798;28;20450;-75
2023/08/22 05:08:03;;;;;;;56.53;15.03;;;19.10;20.10;;;;;;5025095;28;20958;-75
2023/08/22 05:10:29;;;;;;;62.67;14.87;;;19.10;19.30;;;;;;5029361;28;20926;-75
2023/08/22 05:12:55;;;;;;;53.60;14.83;;;19.10;20.50;;;;;;5033724;28;20448;-76
2023/08/22 05:15:37;;;;;;;56.40;14.63;;;19.10;20.90;;;;;;5028032;28;20180;-76
2023/08/22 05:18:13;;;;;;;53.53;13.60;;;19.20;20.60;;;;;;5034636;28;20562;-75
2023/08/22 05:20:43;;;;;;;55.33;14.70;;;19.20;21.30;;;;;;5021411;28;20977;-76
2023/08/22 05:23:13;;;;;;;58.60;14.67;;;19.30;21.50;;;;;;5018350;28;20443;-78
2023/08/22 05:26:01;;;;;;;64.27;15.40;;;19.40;21.50;;;;;;5026409;28;20403;-78
2023/08/22 05:28:31;;;;;;;63.07;14.80;;;19.40;22.40;;;;;;5028593;28;20448;-78
2023/08/22 05:31:34;;;;;;;57.87;15.50;;;19.50;22.10;;;;;;5035662;28;20519;-78
2023/08/22 05:34:08;;;;;;;53.20;16.10;;;19.50;23.10;;;;;;4981020;28;20945;-78
2023/08/22 05:36:43;;;;;;;54.80;15.10;;;19.50;22.00;;;;;;4972966;28;20430;-79
2023/08/22 05:39:13;;;;;;;51.87;13.50;;;19.60;22.90;;;;;;4974536;28;20418;-76
2023/08/22 05:41:49;;;;;;;57.27;14.63;;;19.60;22.90;;;;;;4980596;28;20432;-75
2023/08/22 05:44:15;;;;;;;50.10;14.50;;;19.60;21.50;;;;;;4978346;28;20496;-75
2023/08/22 05:46:42;;;;;;;65.93;14.77;;;19.70;22.20;;;;;;4974385;28;20421;-76
2023/08/22 05:49:13;;;;;;;53.60;14.20;;;19.70;22.20;;;;;;4973671;28;20708;-76
2023/08/22 05:51:43;;;;;;;54.90;13.93;;;19.80;20.80;;;;;;4973802;28;20467;-75
2023/08/22 05:54:13;;;;;;;51.33;13.77;;;19.90;18.10;;;;;;4972607;28;20777;-76
2023/08/22 05:56:43;;;;;;;50.40;14.03;;;20.00;20.20;;;;;;4971900;28;20934;-75
2023/08/22 05:59:09;;;;;;;50.97;13.47;;;20.00;19.50;;;;;;4970263;28;20462;-75
2023/08/22 06:01:37;;;;;;;57.40;12.43;;;20.10;18.50;;;;;;4971969;28;20531;-75
2023/08/22 06:04:07;;;;;;;55.40;13.13;;;20.20;17.70;;;;;;4973320;28;20188;-75
2023/08/22 06:06:37;;;;;;;49.87;13.10;;;20.30;17.60;;;;;;4973497;28;20883;-75
2023/08/22 06:09:20;;;;;;;53.80;14.40;;;20.40;17.20;;;;;;5032094;28;20434;-78
2023/08/22 06:11:55;;;;;;;56.57;12.83;;;20.50;16.70;;;;;;5033004;28;20509;-78
2023/08/22 06:14:31;;;;;;;48.00;12.37;;;20.60;15.30;;;;;;5014832;28;20874;-78
2023/08/22 06:17:01;;;;;;;51.50;13.30;;;20.70;15.20;;;;;;5034164;28;20416;-78
2023/08/22 06:19:26;;;;;;;53.13;12.70;;;20.80;15.20;;;;;;5040782;28;20437;-78
2023/08/22 06:21:55;;;;;;;50.57;12.77;;;20.90;14.50;;;;;;5016208;28;20438;-78
2023/08/22 06:24:21;;;;;;;54.30;12.53;;;21.00;12.80;;;;;;5034521;28;20174;-78
2023/08/22 06:27:13;;;;;;;50.67;12.47;;;21.10;11.40;;;;;;5026473;28;20502;-78
2023/08/22 06:29:49;;;;;;;46.87;12.40;;;21.30;5.40;;;;;;5026474;28;20187;-78
2023/08/22 06:32:25;;;;;;;48.83;12.07;;;21.40;1.00;;;;;;5014377;28;20515;-78
2023/08/22 06:34:51;;;;;;;54.57;11.60;;;21.50;1.00;;;;;;5028688;28;20435;-78
2023/08/22 06:37:19;;;;;;;49.03;10.87;;;21.60;1.00;;;;;;5034310;28;20436;-78
2023/08/22 06:39:56;;;;;;;47.90;10.30;;;21.70;1.00;;;;;;5025944;28;20176;-78
2023/08/22 06:42:21;;;;;;;41.73;9.50;;;21.80;1.00;;;;;;5014417;28;20405;-78
2023/08/22 06:44:49;;;;;;;47.57;10.00;;;21.90;1.00;;;;;;5022662;28;20789;-78
2023/08/22 06:47:33;;;;;;;49.63;9.83;;;22.00;1.00;;;;;;5030913;28;20189;-78
2023/08/22 06:49:59;;;;;;;45.10;9.80;;;22.10;1.00;;;;;;5021268;28;20474;-78
2023/08/22 06:52:24;;;;;;;42.77;8.33;;;22.20;1.00;;;;;;5026366;28;20455;-78
2023/08/22 06:54:50;;;;;;;43.90;9.63;;;22.30;1.00;;;;;;5023546;28;20173;-76
2023/08/22 06:57:31;;;;;;;44.53;9.07;;;22.50;1.00;;;;;;5031643;28;20235;-76
2023/08/22 07:00:14;;;;;;;47.10;8.47;;;22.60;1.00;;;;;;5019565;28;20264;-76
2023/08/22 07:02:45;;;;;;;43.57;8.40;;;22.70;1.00;;;;;;5021107;28;20427;-76
2023/08/22 07:05:14;;;;;;;40.70;7.70;;;22.80;1.00;;;;;;5012993;28;20448;-84
2023/08/22 07:07:44;;;;;;;49.90;8.53;;;;;;;;;;5028994;28;20512;-84
2023/08/22 07:10:14;;;;;;;43.00;8.03;;;23.00;1.00;;;;;;5033118;28;20776;-84
2023/08/22 07:13:14;;;;;;;41.67;8.17;;;23.10;1.00;;;;;;5018146;28;20475;-84
2023/08/22 07:15:43;;;;;;;44.40;9.30;;;23.20;1.00;;;;;;5026946;28;20427;-84
2023/08/22 07:18:13;;;;;;;45.30;9.30;;;23.30;1.00;;;;;;5033643;28;20640;-85
2023/08/22 07:20:39;;;;;;;43.03;9.77;;;23.40;1.00;;;;;;5031019;28;20429;-84
2023/08/22 07:23:13;;;;;;;40.57;10.63;;;23.50;1.00;;;;;;5017694;28;20814;-85
2023/08/22 07:25:50;;;;;;;47.67;11.47;;;23.70;1.00;;;;;;5026504;28;20669;-80
2023/08/22 07:28:37;;;;;;;48.60;11.27;;;23.80;1.00;;;;;;5020077;28;20939;-80
2023/08/22 07:31:03;;;;;;;46.17;11.63;;;23.80;1.00;;;;;;5023544;28;20429;-80
2023/08/22 07:33:31;;;;;;;43.97;11.80;;;24.00;1.00;;;;;;5027152;28;20548;-80
2023/08/22 07:36:20;;;;;;;46.03;11.30;;;24.10;1.00;;;;;;5033379;28;20439;-80
2023/08/22 07:39:01;;;;;;;41.60;9.07;;;24.20;1.00;;;;;;5021273;28;20798;-79
2023/08/22 07:41:27;;;;;;;39.63;7.83;;;24.30;1.00;;;;;;5026106;28;20438;-85
2023/08/22 07:44:13;;;;;;;40.23;7.60;;;24.40;1.00;;;;;;5031544;28;20577;-84
2023/08/22 07:46:43;;;;;;;40.00;7.67;;;24.50;1.00;;;;;;5016590;28;20243;-84
2023/08/22 07:49:14;;;;;;;41.33;7.77;;;24.60;1.00;;;;;;5020523;28;20933;-85
2023/08/22 07:52:08;;;;;;;41.87;8.43;;;24.70;1.00;;;;;;5033579;28;20456;-85
2023/08/22 07:54:43;;;;;;;38.00;7.17;;;24.80;1.00;;;;;;5045892;28;20440;-85
2023/08/22 07:57:13;;;;;;;36.60;6.37;;;25.00;1.00;;;;;;5028068;28;20454;-85
2023/08/22 07:59:43;;;;;;;36.93;6.57;;;25.10;1.00;;;;;;5032135;28;20425;-86
2023/08/22 08:02:43;;;;;;;42.13;7.83;;;25.20;1.00;;;;;;5027006;28;20492;-85
2023/08/22 08:05:26;;;;;;;42.70;7.03;;;25.30;1.00;;;;;;5022970;28;20576;-86
2023/08/22 08:11:13;;;;;;;37.83;6.80;;;25.30;1.00;;;;;;5018572;28;20423;-86
2023/08/22 08:13:39;;;;;;;41.30;8.20;;;25.40;1.00;;;;;;5027088;28;20470;-78
2023/08/22 08:16:07;;;;;;;40.63;7.40;;;25.50;1.00;;;;;;5033342;28;20180;-79
2023/08/22 08:19:13;;;;;;;40.17;8.10;;;25.40;1.00;;;;;;5031632;28;20225;-79
2023/08/22 08:21:43;;;;;;;39.10;7.27;;;25.50;1.00;;;;;;5022453;28;20488;-79
2023/08/22 08:24:15;;;;;;;41.97;8.53;;;25.50;1.00;;;;;;5024017;28;20536;-78
2023/08/22 08:26:44;;;;;;;46.23;7.83;;;25.60;1.00;;;;;;5036132;28;20516;-84
2023/08/22 08:29:13;;;;;;;42.97;7.37;;;25.70;1.00;;;;;;5026138;28;20495;-84
2023/08/22 08:31:44;;;;;;;40.13;6.73;;;25.80;1.00;;;;;;5029394;28;20826;-84
2023/08/22 08:34:19;;;;;;;35.83;7.07;;;25.90;1.00;;;;;;5030352;28;20485;-84
2023/08/22 08:37:13;;;;;;;40.50;8.00;;;26.00;1.00;;;;;;5031748;28;20427;-84
2023/08/22 08:40:01;;;;;;;40.80;8.17;;;26.20;1.00;;;;;;5019779;28;20425;-83
2023/08/22 08:42:37;;;;;;;44.27;8.20;;;26.20;1.00;;;;;;5035979;28;20835;-79
2023/08/22 08:45:06;;;;;;;38.57;7.83;;;26.30;1.00;;;;;;5032594;28;20416;-78
2023/08/22 08:47:34;;;;;;;34.23;7.10;;;26.30;1.00;;;;;;5030860;28;20431;-78
2023/08/22 08:50:05;;;;;;;41.10;9.30;;;26.50;1.00;;;;;;5027088;28;20855;-78
2023/08/22 08:52:32;;;;;;;40.23;8.50;;;26.50;1.00;;;;;;5032740;28;20537;-78
2023/08/22 08:55:13;;;;;;;38.57;8.80;;;26.60;1.00;;;;;;5026826;28;20418;-79
2023/08/22 08:57:43;;;;;;;44.47;10.03;;;26.60;1.00;;;;;;5033772;28;20891;-84
2023/08/22 09:00:10;;;;;;;43.50;9.53;;;26.60;1.00;;;;;;5022693;28;20433;-84
2023/08/22 09:02:44;;;;;;;42.33;9.00;;;26.70;1.00;;;;;;5022274;28;20969;-84
2023/08/22 09:05:11;;;;;;;42.57;7.77;;;26.70;1.00;;;;;;5035576;28;20410;-84
2023/08/22 09:07:44;;;;;;;35.67;8.60;;;26.90;1.00;;;;;;5017124;28;20442;-85
2023/08/22 09:10:30;;;;;;;39.17;8.00;;;27.00;1.00;;;;;;5021883;28;20414;-83
2023/08/22 09:13:03;;;;;;;35.13;7.37;;;27.20;1.00;;;;;;5032933;28;20503;-81
2023/08/22 09:15:33;;;;;;;36.37;8.07;;;27.30;1.00;;;;;;5033408;28;20430;-82
2023/08/22 09:18:07;;;;;;;33.40;7.73;;;27.30;1.00;;;;;;5021706;28;20412;-82
2023/08/22 09:20:33;;;;;;;41.50;8.20;;;27.40;1.00;;;;;;5019139;28;20480;-81
2023/08/22 09:23:02;;;;;;;40.23;8.37;;;27.30;1.00;;;;;;5024186;28;20807;-80
2023/08/22 09:25:55;;;;;;;41.77;8.50;;;27.30;1.00;;;;;;5024387;28;20312;-81
2023/08/22 09:28:41;;;;;;;37.17;7.70;;;27.50;1.00;;;;;;5046381;28;20424;-81
2023/08/22 09:31:23;;;;;;;36.40;7.70;;;27.60;1.00;;;;;;5029773;28;20479;-81
2023/08/22 09:34:14;;;;;;;34.90;7.67;;;27.50;1.00;;;;;;5035433;28;20411;-81
2023/08/22 09:37:13;;;;;;;40.73;7.97;;;27.60;1.00;;;;;;5015635;28;20426;-81
2023/08/22 09:40:16;;;;;;;40.77;8.97;;;27.70;1.00;;;;;;5027595;28;20406;-81
2023/08/22 09:42:55;;;;;;;37.13;7.60;;;27.80;1.00;;;;;;5032862;28;20494;-81
2023/08/22 09:45:28;;;;;;;36.27;7.47;;;27.80;1.00;;;;;;5032362;28;20951;-81
2023/08/22 09:48:16;;;;;;;40.53;8.10;;;28.10;1.00;;;;;;5028558;28;20430;-82
2023/08/22 09:51:03;;;;;;;42.30;8.00;;;28.30;1.00;;;;;;5021456;28;20436;-81
2023/08/22 09:53:46;;;;;;;36.30;6.83;;;28.30;1.00;;;;;;5034807;28;20852;-81
2023/08/22 09:56:13;;;;;;;35.57;7.80;;;28.30;1.00;;;;;;5037268;28;20422;-80
2023/08/22 09:58:44;;;;;;;59.50;8.07;;;28.30;1.00;;;;;;5030648;28;20504;-83
2023/08/22 10:01:16;;;;;;;37.10;8.00;;;28.30;1.00;;;;;;5034697;28;20930;-81
2023/08/22 10:04:13;;;;;;;34.97;7.20;;;28.40;1.00;;;;;;5021388;28;20525;-80
2023/08/22 10:10:01;;;;;;;35.63;6.80;;;29.50;1.00;;;;;;5026718;28;20395;-81
2023/08/22 10:12:39;;;;;;;36.30;6.67;;;29.50;1.00;;;;;;5028255;28;20512;-79
2023/08/22 10:15:08;;;;;;;47.20;6.03;;;29.80;1.00;;;;;;5021139;28;20416;-79
2023/08/22 10:17:50;;;;;;;40.80;6.47;;;29.90;1.00;;;;;;5023448;28;20404;-77
2023/08/22 10:20:16;;;;;;;41.47;6.40;;;30.00;1.00;;;;;;5014940;28;21174;-77
2023/08/22 10:22:43;;;;;;;36.13;6.40;;;30.00;1.00;;;;;;5033717;28;20430;-78
2023/08/22 10:25:19;;;;;;;34.17;6.40;;;30.10;1.00;;;;;;5032328;28;20533;-78
2023/08/22 10:27:48;;;;;;;34.23;6.30;;;30.00;1.00;;;;;;5019723;28;20408;-79
2023/08/22 10:30:20;;;;;;;33.80;6.13;;;30.00;1.00;;;;;;5028847;28;20789;-78
2023/08/22 10:33:07;;;;;;;32.70;5.70;;;30.10;1.00;;;;;;5033633;28;20451;-78
2023/08/22 10:36:06;;;;;;;42.27;6.57;;;30.50;1.00;;;;;;5018582;28;20521;-78
2023/08/22 10:39:04;;;;;;;41.53;6.03;;;30.60;1.00;;;;;;5014187;28;20879;-79
2023/08/22 10:41:53;;;;;;;37.40;6.20;;;30.60;1.00;;;;;;4973061;28;20936;-79
2023/08/22 10:44:37;;;;;;;33.93;6.03;;;30.60;1.00;;;;;;4983953;28;20491;-78
2023/08/22 10:47:16;;;;;;;39.63;5.70;;;30.60;1.00;;;;;;4992688;28;20872;-78
2023/08/22 10:50:11;;;;;;;37.90;6.10;;;30.60;1.00;;;;;;4992322;28;20420;-78
2023/08/22 10:52:44;;;;;;;34.53;5.37;;;30.70;1.00;;;;;;4986131;28;20516;-78
2023/08/22 10:55:13;;;;;;;35.03;5.57;;;30.80;1.00;;;;;;4986927;28;20424;-78
2023/08/22 10:57:47;;;;;;;31.73;5.63;;;30.70;1.00;;;;;;4992517;28;20425;-80
2023/08/22 11:00:49;;;;;;;38.27;5.53;;;30.70;1.00;;;;;;4975946;28;20460;-80
2023/08/22 11:03:20;;;;;;;39.93;5.13;;;30.70;1.00;;;;;;4975850;28;20448;-80
2023/08/22 11:06:10;;;;;;;34.70;5.20;;;30.80;1.00;;;;;;4992331;28;20924;-80
2023/08/22 11:08:55;;;;;;;37.93;5.00;;;30.70;1.00;;;;;;4991937;28;20425;-80
2023/08/22 11:11:26;;;;;;;31.90;5.07;;;30.70;1.00;;;;;;4992476;28;20499;-80
2023/08/22 11:14:13;;;;;;;32.90;5.40;;;30.90;1.00;;;;;;4973969;28;20838;-79
2023/08/22 11:17:19;;;;;;;34.37;5.10;;;30.90;1.00;;;;;;4985838;28;20408;-78
2023/08/22 11:19:57;;;;;;;32.23;5.80;;;30.90;1.00;;;;;;5014109;28;20404;-78
2023/08/22 11:22:26;;;;;;;29.77;4.90;;;30.80;1.00;;;;;;5032319;28;20419;-78
2023/08/22 11:25:13;;;;;;;34.20;4.80;;;30.70;1.00;;;;;;5032776;28;20924;-78
2023/08/22 11:27:43;;;;;;;32.67;5.43;;;30.70;1.00;;;;;;5032602;28;20403;-80
2023/08/22 11:30:20;;;;;;;36.63;5.53;;;30.70;1.00;;;;;;5032243;28;20814;-81
2023/08/22 11:32:55;;;;;;;33.80;5.67;;;31.00;1.00;;;;;;5026801;28;20456;-80
2023/08/22 11:35:39;;;;;;;29.90;4.70;;;31.00;1.00;;;;;;5022261;28;20399;-80
2023/08/22 11:38:25;;;;;;;31.40;5.10;;;30.90;1.00;;;;;;5033331;28;20429;-81
2023/08/22 11:40:53;;;;;;;29.10;4.77;;;31.30;1.00;;;;;;5030772;28;20490;-80
2023/08/22 11:43:19;;;;;;;32.33;5.03;;;31.70;1.00;;;;;;5033128;28;20423;-81
2023/08/22 11:45:50;;;;;;;30.47;4.87;;;31.90;1.00;;;;;;5019838;28;20775;-81
2023/08/22 11:48:32;;;;;;;30.00;4.90;;;31.90;1.00;;;;;;5033390;28;20423;-81
2023/08/22 11:51:07;;;;;;;32.33;5.00;;;31.80;1.00;;;;;;5016510;28;20892;-81
2023/08/22 11:54:02;;;;;;;33.20;5.20;;;32.00;1.00;;;;;;5026201;28;20503;-81
2023/08/22 11:56:38;;;;;;;33.63;5.57;;;32.10;1.00;;;;;;5037556;28;20734;-80
2023/08/22 11:59:40;;;;;;;33.23;5.33;;;32.10;1.00;;;;;;5037175;28;20774;-78
2023/08/22 12:02:06;;;;;;;30.30;4.90;;;32.20;1.00;;;;;;5037697;28;20461;-78
2023/08/22 12:04:55;;;;;;;34.63;4.60;;;32.20;1.00;;;;;;5034295;28;20427;-78
2023/08/22 12:07:59;;;;;;;31.73;5.43;;;32.20;1.00;;;;;;5035613;28;20957;-78
2023/08/22 12:10:37;;;;;;;36.63;5.23;;;32.00;1.00;;;;;;4959140;28;20503;-78
2023/08/22 12:13:08;;;;;;;35.47;5.60;;;32.10;1.00;;;;;;4976148;28;20460;-80
2023/08/22 12:15:39;;;;;;;39.23;4.80;;;32.10;1.00;;;;;;4962856;28;20502;-80
2023/08/22 12:18:15;;;;;;;34.13;5.20;;;31.80;1.00;;;;;;4970506;28;20538;-80
2023/08/22 12:20:45;;;;;;;33.40;5.37;;;31.80;1.00;;;;;;4956640;29;20405;-81
2023/08/22 12:23:13;;;;;;;34.67;5.70;;;31.70;1.00;;;;;;4953582;28;20507;-80
2023/08/22 12:25:44;;;;;;;33.60;5.50;;;31.70;1.00;;;;;;4964902;28;20916;-81
2023/08/22 12:28:20;;;;;;;32.13;6.07;;;31.90;1.00;;;;;;4974615;28;20430;-79
2023/08/22 12:30:49;;;;;;;32.70;5.47;;;32.00;1.00;;;;;;4969304;28;20425;-79
2023/08/22 12:33:18;;;;;;;38.43;4.70;;;32.30;1.00;;;;;;4975579;28;20450;-79
2023/08/22 12:35:44;;;;;;;29.90;4.80;;;32.40;1.00;;;;;;4947981;29;20441;-79
2023/08/22 12:38:20;;;;;;;43.53;4.97;;;32.50;1.00;;;;;;4973471;28;20839;-78
2023/08/22 12:40:45;;;;;;;32.80;4.97;;;32.60;1.00;;;;;;4955879;28;20175;-78
2023/08/22 12:43:14;;;;;;;30.40;4.50;;;32.80;1.00;;;;;;4964887;28;20446;-81
2023/08/22 12:45:56;;;;;;;31.00;4.90;;;32.80;1.00;;;;;;5022403;28;20184;-82
2023/08/22 12:48:43;;;;;;;31.00;4.80;;;32.60;1.00;;;;;;5026717;28;20447;-87
2023/08/22 12:51:14;;;;;;;31.00;4.30;;;32.60;1.00;;;;;;5035030;28;20439;-89
2023/08/22 12:53:44;;;;;;;30.03;4.00;;;32.60;1.00;;;;;;5024964;28;20479;-87
2023/08/22 12:56:14;;;;;;;30.40;4.20;;;32.30;1.00;;;;;;5016056;28;20411;-88
2023/08/22 12:58:44;;;;;;;28.70;4.00;;;32.40;1.00;;;;;;5026592;28;20435;-81
2023/08/22 13:01:14;;;;;;;28.17;4.17;;;32.40;1.00;;;;;;5034739;28;20510;-81
2023/08/22 13:03:40;;;;;;;28.93;4.30;;;32.50;1.00;;;;;;5029980;28;20423;-80
2023/08/22 13:06:14;;;;;;;29.13;4.00;;;32.50;1.00;;;;;;5034724;28;20433;-80
2023/08/22 13:08:44;;;;;;;28.83;3.90;;;32.60;1.00;;;;;;5035880;28;20161;-81
2023/08/22 13:11:14;;;;;;;30.07;4.00;;;32.50;1.00;;;;;;5034473;28;20957;-81
2023/08/22 13:13:39;;;;;;;31.17;4.07;;;32.30;1.00;;;;;;5030107;28;20459;-81
2023/08/22 13:16:08;;;;;;;29.47;4.00;;;32.50;1.00;;;;;;5041394;28;20440;-81
2023/08/22 13:18:34;;;;;;;35.40;4.20;;;32.60;1.00;;;;;;5034898;28;20177;-80
2023/08/22 13:21:00;;;;;;;29.37;3.73;;;32.80;1.00;;;;;;5026580;28;20847;-81
2023/08/22 13:23:32;;;;;;;29.30;3.50;;;32.80;1.00;;;;;;5034480;28;20502;-80
2023/08/22 13:26:43;;;;;;;28.00;3.23;;;33.00;1.00;;;;;;5035521;28;20247;-81
2023/08/22 13:29:13;;;;;;;32.30;4.20;;;33.00;1.00;;;;;;5022896;28;20438;-80
2023/08/22 13:31:56;;;;;;;28.23;3.10;;;32.80;1.00;;;;;;5017562;28;20512;-80
2023/08/22 13:34:38;;;;;;;28.90;3.40;;;32.70;1.00;;;;;;5014455;28;20420;-81
2023/08/22 13:37:03;;;;;;;32.17;3.50;;;32.70;1.00;;;;;;5024520;28;20456;-80
2023/08/22 13:39:32;;;;;;;31.20;3.50;;;32.50;1.00;;;;;;5024034;28;20510;-80
2023/08/22 13:42:08;;;;;;;34.67;3.33;;;32.50;1.00;;;;;;5033113;28;20287;-81
2023/08/22 13:44:38;;;;;;;28.40;3.10;;;32.50;1.00;;;;;;5032266;28;20459;-88
2023/08/22 13:47:08;;;;;;;27.90;3.20;;;32.70;1.00;;;;;;5021418;28;20462;-89
2023/08/22 13:53:08;;;;;;;26.73;3.00;;;32.80;1.00;;;;;;5016826;28;20835;-90
2023/08/22 13:55:50;;;;;;;27.23;3.00;;;32.80;1.00;;;;;;5017004;28;20475;-89